createdAt,value
2022-12-29T00:02:16.053Z,101996.53
2022-12-29T00:04:43.156Z,102000.38
2022-12-29T00:07:10.589Z,102000.09
2022-12-29T00:09:38.249Z,101997.44
2022-12-29T00:12:06.131Z,101994.03
2022-12-29T00:14:51.497Z,102000.81
2022-12-29T00:17:18.525Z,102001.47
2022-12-29T00:20:03.855Z,101998.41
2022-12-29T00:22:49.392Z,102002.47
2022-12-29T00:25:35.023Z,101998.06
2022-12-29T00:28:21.783Z,102001.78
2022-12-29T00:31:07.417Z,101997.94
2022-12-29T00:33:53.061Z,101999.97
2022-12-29T00:36:34.343Z,101992.16
2022-12-29T00:39:26.773Z,101995.72
2022-12-29T00:42:12.021Z,101994.13
2022-12-29T00:44:38.895Z,101988.75
2022-12-29T00:47:05.821Z,101993.72
2022-12-29T00:49:34.193Z,101990.34
2022-12-29T00:52:07.332Z,101989.78
2022-12-29T00:54:36.707Z,101990.78
2022-12-29T00:57:05.274Z,101982.09
2022-12-29T00:59:32.284Z,101981.97
2022-12-29T01:01:59.724Z,101979.19
2022-12-29T01:04:28.838Z,101974.19
2022-12-29T01:06:55.810Z,101970.25
2022-12-29T01:09:40.947Z,101958.47
2022-12-29T01:12:09.676Z,101965.75
2022-12-29T01:14:38.041Z,101966.19
2022-12-29T01:17:06.411Z,101962.47
2022-12-29T01:19:33.314Z,101958.16
2022-12-29T01:22:01.259Z,101955.47
2022-12-29T01:24:28.831Z,101951.41
2022-12-29T01:26:55.945Z,101943.13
2022-12-29T01:29:23.358Z,101940.78
2022-12-29T01:31:51.241Z,101940.28
2022-12-29T01:34:19.016Z,101935.81
2022-12-29T01:36:46.223Z,101937.13
2022-12-29T01:39:14.224Z,101930.00
2022-12-29T01:41:41.503Z,101920.44
2022-12-29T01:44:54.576Z,101913.75
2022-12-29T01:47:30.778Z,101901.72
2022-12-29T01:50:02.793Z,101906.44
2022-12-29T01:52:32.624Z,101894.75
2022-12-29T01:55:00.743Z,101884.56
2022-12-29T01:57:32.776Z,101885.81
2022-12-29T02:00:09.622Z,101884.69
2022-12-29T02:02:53.597Z,101888.94
2022-12-29T02:05:33.826Z,101887.34
2022-12-29T02:08:02.349Z,101892.38
2022-12-29T02:10:33.004Z,101887.75
2022-12-29T02:13:00.836Z,101896.75
2022-12-29T02:16:01.882Z,101897.25
2022-12-29T02:19:05.783Z,101898.38
2022-12-29T02:21:54.243Z,101877.44
2022-12-29T02:24:30.076Z,101884.50
2022-12-29T02:27:27.859Z,101885.41
2022-12-29T02:30:13.071Z,101878.75
2022-12-29T02:33:01.718Z,101876.13
2022-12-29T02:35:42.494Z,101864.63
2022-12-29T02:38:22.769Z,101864.13
2022-12-29T02:40:52.649Z,101855.84
2022-12-29T02:43:48.991Z,101851.50
2022-12-29T02:46:18.793Z,101850.00
2022-12-29T02:49:18.372Z,101849.34
2022-12-29T02:51:56.099Z,101854.16
2022-12-29T02:54:43.040Z,101854.22
2022-12-29T02:57:31.232Z,101852.09
2022-12-29T03:00:08.801Z,101841.00
2022-12-29T03:02:48.021Z,101839.47
2022-12-29T03:05:22.879Z,101838.94
2022-12-29T03:08:04.638Z,101843.28
2022-12-29T03:10:31.702Z,101840.03
2022-12-29T03:13:43.415Z,101844.66
2022-12-29T03:16:36.953Z,101840.84
2022-12-29T03:19:20.582Z,101852.00
2022-12-29T03:22:20.460Z,101855.81
2022-12-29T03:25:09.111Z,101851.47
2022-12-29T03:27:51.681Z,101857.03
2022-12-29T03:30:20.342Z,101854.50
2022-12-29T03:32:58.371Z,101868.06
2022-12-29T03:35:33.012Z,101867.75
2022-12-29T03:38:27.190Z,101866.34
2022-12-29T03:40:57.954Z,101868.09
2022-12-29T03:43:28.431Z,101873.09
2022-12-29T03:45:55.808Z,101880.81
2022-12-29T03:48:23.021Z,101884.28
2022-12-29T03:50:51.667Z,101879.97
2022-12-29T03:53:19.351Z,101868.47
2022-12-29T03:55:46.672Z,101864.13
2022-12-29T03:58:13.622Z,101874.66
2022-12-29T04:00:58.306Z,101869.84
2022-12-29T04:03:25.401Z,101878.91
2022-12-29T04:05:52.316Z,101882.19
2022-12-29T04:08:19.439Z,101883.31
2022-12-29T04:10:46.363Z,101887.84
2022-12-29T04:13:16.013Z,101885.41
2022-12-29T04:15:46.310Z,101885.09
2022-12-29T04:18:13.941Z,101881.41
2022-12-29T04:21:00.202Z,101885.25
2022-12-29T04:23:29.358Z,101888.06
2022-12-29T04:25:56.809Z,101887.88
2022-12-29T04:28:24.409Z,101886.47
2022-12-29T04:31:04.380Z,101880.97
2022-12-29T04:33:35.826Z,101885.78
2022-12-29T04:36:03.797Z,101892.75
2022-12-29T04:38:31.004Z,101892.19
2022-12-29T04:41:01.529Z,101891.91
2022-12-29T04:43:29.109Z,101894.81
2022-12-29T04:46:19.237Z,101907.63
2022-12-29T04:48:53.522Z,101893.69
2022-12-29T04:51:38.847Z,101903.16
2022-12-29T04:54:08.493Z,101896.75
2022-12-29T04:56:36.356Z,101897.22
2022-12-29T04:59:03.363Z,101894.69
2022-12-29T05:01:30.320Z,101895.09
2022-12-29T05:03:58.482Z,101887.81
2022-12-29T05:06:26.092Z,101897.53
2022-12-29T05:08:53.052Z,101897.69
2022-12-29T05:11:20.501Z,101897.81
2022-12-29T05:13:49.853Z,101901.38
2022-12-29T05:16:18.231Z,101895.47
2022-12-29T05:18:45.726Z,101892.75
2022-12-29T05:21:12.889Z,101889.72
2022-12-29T05:23:41.744Z,101891.47
2022-12-29T05:26:08.910Z,101889.75
2022-12-29T05:28:54.172Z,101893.50
2022-12-29T05:31:21.244Z,101887.97
2022-12-29T05:33:48.933Z,101882.47
2022-12-29T05:36:15.950Z,101886.72
2022-12-29T05:38:47.742Z,101885.34
2022-12-29T05:41:15.047Z,101891.88
2022-12-29T05:44:08.945Z,101888.84
2022-12-29T05:46:54.948Z,101885.28
2022-12-29T05:49:38.912Z,101891.31
2022-12-29T05:52:43.013Z,101888.91
2022-12-29T05:55:10.084Z,101894.97
2022-12-29T05:57:39.176Z,101888.56
2022-12-29T06:00:13.441Z,101889.19
2022-12-29T06:02:44.719Z,101895.38
2022-12-29T06:05:12.104Z,101879.72
2022-12-29T06:07:40.438Z,101886.91
2022-12-29T06:10:08.126Z,101888.13
2022-12-29T06:12:57.535Z,101877.06
2022-12-29T06:15:24.838Z,101883.38
2022-12-29T06:17:51.763Z,101878.41
2022-12-29T06:20:18.661Z,101880.50
2022-12-29T06:22:46.492Z,101873.22
2022-12-29T06:25:14.252Z,101873.19
2022-12-29T06:27:43.513Z,101874.59
2022-12-29T06:30:12.079Z,101876.75
2022-12-29T06:32:40.412Z,101864.50
2022-12-29T06:35:10.258Z,101874.97
2022-12-29T06:37:42.038Z,101872.19
2022-12-29T06:40:09.670Z,101871.97
2022-12-29T06:43:02.498Z,101870.63
2022-12-29T06:45:49.631Z,101872.28
2022-12-29T06:48:16.580Z,101866.19
2022-12-29T06:50:44.199Z,101876.19
2022-12-29T06:53:11.264Z,101865.78
2022-12-29T06:55:38.463Z,101873.25
2022-12-29T06:58:05.360Z,101872.38
2022-12-29T07:00:32.353Z,101875.03
2022-12-29T07:02:59.649Z,101872.28
2022-12-29T07:05:28.793Z,101868.72
2022-12-29T07:07:56.425Z,101872.81
2022-12-29T07:10:24.320Z,101869.97
2022-12-29T07:12:51.740Z,101865.00
2022-12-29T07:15:19.034Z,101879.22
2022-12-29T07:17:45.896Z,101879.19
2022-12-29T07:20:12.943Z,101875.22
2022-12-29T07:22:39.887Z,101869.91
2022-12-29T07:25:07.047Z,101870.84
2022-12-29T07:27:33.917Z,101870.59
2022-12-29T07:30:00.945Z,101870.50
2022-12-29T07:32:27.960Z,101873.50
2022-12-29T07:34:54.846Z,101872.38
2022-12-29T07:37:21.835Z,101872.94
2022-12-29T07:39:48.686Z,101870.34
2022-12-29T07:42:15.678Z,101867.91
2022-12-29T07:44:51.254Z,101878.91
2022-12-29T07:47:56.505Z,101871.94
2022-12-29T07:50:23.401Z,101874.81
2022-12-29T07:52:51.037Z,101875.22
2022-12-29T07:55:18.232Z,101877.69
2022-12-29T07:57:45.398Z,101872.22
2022-12-29T08:00:12.860Z,101875.63
2022-12-29T08:02:40.150Z,101883.16
2022-12-29T08:05:07.649Z,101881.31
2022-12-29T08:07:34.617Z,101874.84
2022-12-29T08:10:02.594Z,101869.94
2022-12-29T08:12:29.550Z,101870.16
2022-12-29T08:14:56.502Z,101877.50
2022-12-29T08:17:23.600Z,101875.69
2022-12-29T08:19:50.465Z,101872.50
2022-12-29T08:22:17.460Z,101881.00
2022-12-29T08:24:44.351Z,101877.41
2022-12-29T08:27:17.963Z,101877.69
2022-12-29T08:29:47.672Z,101874.03
2022-12-29T08:32:14.710Z,101882.38
2022-12-29T08:34:41.686Z,101871.88
2022-12-29T08:37:08.556Z,101873.09
2022-12-29T08:39:35.755Z,101867.19
2022-12-29T08:42:02.687Z,101862.66
2022-12-29T08:44:29.621Z,101857.00
2022-12-29T08:46:56.728Z,101865.94
2022-12-29T08:49:23.744Z,101864.03
2022-12-29T08:51:50.806Z,101855.13
2022-12-29T08:54:17.704Z,101858.94
2022-12-29T08:56:46.107Z,101857.38
2022-12-29T08:59:14.716Z,101856.88
2022-12-29T09:01:42.985Z,101858.41
2022-12-29T09:04:15.696Z,101845.88
2022-12-29T09:06:43.951Z,101855.00
2022-12-29T09:09:11.460Z,101836.91
2022-12-29T09:11:38.510Z,101851.09
2022-12-29T09:14:05.417Z,101841.63
2022-12-29T09:16:32.706Z,101839.13
2022-12-29T09:18:59.635Z,101832.84
2022-12-29T09:21:26.479Z,101837.34
2022-12-29T09:23:53.667Z,101838.81
2022-12-29T09:26:20.540Z,101835.84
2022-12-29T09:28:48.248Z,101834.66
2022-12-29T09:31:15.493Z,101831.97
2022-12-29T09:33:42.498Z,101827.94
2022-12-29T09:36:09.786Z,101824.41
2022-12-29T09:38:36.833Z,101832.44
2022-12-29T09:41:32.657Z,101828.72
2022-12-29T09:44:02.215Z,101827.22
2022-12-29T09:46:35.723Z,101820.63
2022-12-29T09:49:09.026Z,101807.22
2022-12-29T09:51:39.520Z,101810.41
2022-12-29T09:54:40.647Z,101810.19
2022-12-29T09:57:42.487Z,101798.69
2022-12-29T10:00:21.878Z,101796.31
2022-12-29T10:02:51.491Z,101795.00
2022-12-29T10:05:34.414Z,101791.38
2022-12-29T10:08:32.169Z,101790.44
2022-12-29T10:11:31.184Z,101780.25
2022-12-29T10:14:19.984Z,101797.00
2022-12-29T10:17:00.129Z,101781.66
2022-12-29T10:19:42.507Z,101779.19
2022-12-29T10:22:48.413Z,101767.31
2022-12-29T10:25:31.254Z,101766.28
2022-12-29T10:28:02.807Z,101758.56
2022-12-29T10:30:30.639Z,101761.44
2022-12-29T10:33:06.742Z,101751.59
2022-12-29T10:35:40.176Z,101747.13
2022-12-29T10:38:50.447Z,101753.25
2022-12-29T10:41:42.337Z,101750.13
2022-12-29T10:44:14.912Z,101753.25
2022-12-29T10:46:44.412Z,101743.06
2022-12-29T10:49:21.997Z,101742.38
2022-12-29T10:51:53.156Z,101732.50
2022-12-29T10:54:42.905Z,101741.06
2022-12-29T10:57:17.852Z,101728.47
2022-12-29T10:59:44.799Z,101728.00
2022-12-29T11:02:11.760Z,101736.38
2022-12-29T11:04:56.279Z,101735.34
2022-12-29T11:07:27.070Z,101728.78
2022-12-29T11:09:55.170Z,101729.22
2022-12-29T11:12:29.204Z,101725.66
2022-12-29T11:15:08.644Z,101721.31
2022-12-29T11:17:58.882Z,101723.09
2022-12-29T11:20:39.851Z,101732.44
2022-12-29T11:23:27.359Z,101719.66
2022-12-29T11:26:12.449Z,101720.56
2022-12-29T11:28:39.568Z,101708.09
2022-12-29T11:31:08.275Z,101709.25
2022-12-29T11:33:37.139Z,101706.06
2022-12-29T11:36:07.843Z,101713.59
2022-12-29T11:38:42.059Z,101714.31
2022-12-29T11:41:14.833Z,101700.88
2022-12-29T11:43:44.405Z,101706.53
2022-12-29T11:46:18.898Z,101707.97
2022-12-29T11:48:48.851Z,101705.91
2022-12-29T11:51:28.081Z,101699.59
2022-12-29T11:53:59.661Z,101691.78
2022-12-29T11:56:53.543Z,101691.59
2022-12-29T11:59:32.501Z,101694.00
2022-12-29T12:02:01.912Z,101687.13
2022-12-29T12:04:37.567Z,101689.13
2022-12-29T12:07:16.787Z,101682.66
2022-12-29T12:09:52.939Z,101675.81
2022-12-29T12:12:35.999Z,101676.81
2022-12-29T12:15:04.691Z,101677.72
2022-12-29T12:18:09.031Z,101668.59
2022-12-29T12:20:58.861Z,101663.97
2022-12-29T12:24:11.844Z,101666.53
2022-12-29T12:26:57.291Z,101676.28
2022-12-29T12:29:35.426Z,101663.84
2022-12-29T12:32:34.025Z,101661.78
2022-12-29T12:35:00.954Z,101655.53
2022-12-29T12:37:58.283Z,101655.00
2022-12-29T12:41:09.185Z,101654.59
2022-12-29T12:43:36.247Z,101657.94
2022-12-29T12:46:11.975Z,101659.28
2022-12-29T12:49:00.941Z,101674.63
2022-12-29T12:51:45.914Z,101667.31
2022-12-29T12:54:31.464Z,101665.59
2022-12-29T12:57:10.241Z,101672.56
2022-12-29T13:00:02.868Z,101668.53
2022-12-29T13:02:29.849Z,101668.78
2022-12-29T13:05:09.030Z,101666.13
2022-12-29T13:08:02.690Z,101666.81
2022-12-29T13:11:03.529Z,101666.69
2022-12-29T13:13:30.430Z,101677.94
2022-12-29T13:16:00.442Z,101670.94
2022-12-29T13:19:02.382Z,101670.50
2022-12-29T13:22:15.874Z,101668.00
2022-12-29T13:25:22.617Z,101674.09
2022-12-29T13:27:58.441Z,101669.22
2022-12-29T13:30:51.947Z,101666.41
2022-12-29T13:33:25.073Z,101672.16
2022-12-29T13:36:07.598Z,101673.47
2022-12-29T13:38:41.333Z,101671.28
2022-12-29T13:41:17.539Z,101678.22
2022-12-29T13:43:47.892Z,101670.41
2022-12-29T13:46:26.736Z,101670.13
2022-12-29T13:48:55.399Z,101676.66
2022-12-29T13:51:28.613Z,101680.00
2022-12-29T13:54:12.569Z,101667.56
2022-12-29T13:56:42.131Z,101668.53
2022-12-29T13:59:46.529Z,101669.28
2022-12-29T14:02:22.381Z,101666.88
2022-12-29T14:05:01.159Z,101668.19
2022-12-29T14:07:29.388Z,101663.47
2022-12-29T14:09:58.411Z,101658.31
2022-12-29T14:12:41.892Z,101668.38
2022-12-29T14:15:11.462Z,101672.16
2022-12-29T14:17:45.039Z,101687.47
2022-12-29T14:20:22.379Z,101680.84
2022-12-29T14:22:58.198Z,101675.31
2022-12-29T14:26:03.889Z,101674.41
2022-12-29T14:28:33.314Z,101674.56
2022-12-29T14:31:05.143Z,101670.34
2022-12-29T14:33:34.869Z,101672.16
2022-12-29T14:36:27.800Z,101666.81
2022-12-29T14:38:54.727Z,101661.59
2022-12-29T14:41:28.679Z,101660.66
2022-12-29T14:44:02.226Z,101666.59
2022-12-29T14:46:55.037Z,101669.19
2022-12-29T14:49:25.938Z,101680.47
2022-12-29T14:51:56.188Z,101682.19
2022-12-29T14:54:44.183Z,101681.44
2022-12-29T14:57:35.845Z,101677.91
2022-12-29T15:00:08.195Z,101678.78
2022-12-29T15:02:40.882Z,101685.84
2022-12-29T15:05:34.005Z,101680.56
2022-12-29T15:08:02.649Z,101691.00
2022-12-29T15:10:40.664Z,101687.44
2022-12-29T15:13:17.586Z,101686.53
2022-12-29T15:15:44.676Z,101691.84
2022-12-29T15:18:32.100Z,101693.44
2022-12-29T15:21:04.848Z,101688.19
2022-12-29T15:23:33.990Z,101687.31
2022-12-29T15:26:06.727Z,101685.44
2022-12-29T15:28:41.466Z,101684.31
2022-12-29T15:31:30.637Z,101681.84
2022-12-29T15:34:12.638Z,101681.66
2022-12-29T15:36:41.383Z,101679.88
2022-12-29T15:39:21.802Z,101688.41
2022-12-29T15:42:05.122Z,101686.56
2022-12-29T15:44:41.622Z,101683.09
2022-12-29T15:47:30.676Z,101674.28
2022-12-29T15:50:05.716Z,101682.22
2022-12-29T15:52:34.692Z,101683.00
2022-12-29T15:55:03.274Z,101683.97
2022-12-29T15:57:43.054Z,101683.81
2022-12-29T16:00:31.420Z,101689.84
2022-12-29T16:03:01.388Z,101690.72
2022-12-29T16:05:39.460Z,101688.97
2022-12-29T16:08:35.164Z,101682.66
2022-12-29T16:11:04.185Z,101682.84
2022-12-29T16:13:40.548Z,101689.84
2022-12-29T16:16:19.626Z,101686.03
2022-12-29T16:18:50.492Z,101680.84
2022-12-29T16:21:34.602Z,101684.41
2022-12-29T16:24:22.965Z,101684.13
2022-12-29T16:27:11.585Z,101686.03
2022-12-29T16:29:38.516Z,101693.03
2022-12-29T16:32:30.747Z,101689.88
2022-12-29T16:35:24.851Z,101685.63
2022-12-29T16:38:16.613Z,101684.97
2022-12-29T16:41:03.748Z,101692.75
2022-12-29T16:43:36.250Z,101693.00
2022-12-29T16:46:03.210Z,101694.44
2022-12-29T16:48:54.545Z,101695.59
2022-12-29T16:51:37.621Z,101707.78
2022-12-29T16:54:05.724Z,101709.03
2022-12-29T16:56:36.301Z,101710.19
2022-12-29T16:59:08.295Z,101705.06
2022-12-29T17:01:39.746Z,101706.03
2022-12-29T17:04:10.040Z,101707.72
2022-12-29T17:06:37.050Z,101712.28
2022-12-29T17:09:17.100Z,101716.81
2022-12-29T17:12:00.426Z,101718.41
2022-12-29T17:14:37.795Z,101710.41
2022-12-29T17:17:10.198Z,101708.53
2022-12-29T17:19:39.351Z,101722.50
2022-12-29T17:22:36.465Z,101719.09
2022-12-29T17:25:04.131Z,101712.91
2022-12-29T17:27:33.696Z,101715.59
2022-12-29T17:30:22.015Z,101712.31
2022-12-29T17:33:14.406Z,101721.09
2022-12-29T17:35:41.672Z,101717.06
2022-12-29T17:38:28.677Z,101717.94
2022-12-29T17:40:56.346Z,101707.59
2022-12-29T17:43:23.538Z,101705.72
2022-12-29T17:45:55.435Z,101709.22
2022-12-29T17:48:22.834Z,101706.59
2022-12-29T17:50:52.787Z,101695.03
2022-12-29T17:53:24.051Z,101700.34
2022-12-29T17:55:51.535Z,101702.09
2022-12-29T17:58:21.928Z,101704.75
2022-12-29T18:00:50.629Z,101702.34
2022-12-29T18:03:20.634Z,101702.56
2022-12-29T18:05:49.975Z,101701.69
2022-12-29T18:08:17.089Z,101693.44
2022-12-29T18:10:44.604Z,101693.72
2022-12-29T18:13:28.099Z,101699.44
2022-12-29T18:15:58.046Z,101697.09
2022-12-29T18:18:27.559Z,101694.78
2022-12-29T18:20:58.987Z,101700.97
2022-12-29T18:23:28.456Z,101701.66
2022-12-29T18:25:59.231Z,101699.59
2022-12-29T18:28:26.855Z,101700.88
2022-12-29T18:30:55.837Z,101693.28
2022-12-29T18:33:26.290Z,101693.59
2022-12-29T18:36:00.136Z,101690.88
2022-12-29T18:38:28.036Z,101696.09
2022-12-29T18:40:55.756Z,101697.13
2022-12-29T18:43:23.245Z,101698.75
2022-12-29T18:45:50.336Z,101697.00
2022-12-29T18:48:18.889Z,101700.59
2022-12-29T18:50:46.896Z,101692.75
2022-12-29T18:53:18.915Z,101684.78
2022-12-29T18:55:46.226Z,101691.00
2022-12-29T18:58:14.452Z,101689.94
2022-12-29T19:00:42.031Z,101681.53
2022-12-29T19:03:13.471Z,101677.75
2022-12-29T19:05:42.629Z,101688.09
2022-12-29T19:08:10.525Z,101690.56
2022-12-29T19:10:38.849Z,101687.22
2022-12-29T19:13:06.713Z,101685.75
2022-12-29T19:15:41.184Z,101689.50
2022-12-29T19:18:42.933Z,101688.56
2022-12-29T19:20:57.638Z,101689.53
2022-12-29T19:23:27.157Z,101689.50
2022-12-29T19:25:55.479Z,101687.81
2022-12-29T19:28:26.488Z,101678.94
2022-12-29T19:30:57.475Z,101682.34
2022-12-29T19:33:25.095Z,101675.25
2022-12-29T19:35:52.774Z,101680.69
2022-12-29T19:38:20.368Z,101672.91
2022-12-29T19:40:50.884Z,101675.56
2022-12-29T19:43:18.533Z,101678.00
2022-12-29T19:45:45.931Z,101666.66
2022-12-29T19:48:18.472Z,101668.44
2022-12-29T19:50:46.975Z,101661.84
2022-12-29T19:53:14.657Z,101672.50
2022-12-29T19:55:46.337Z,101668.97
2022-12-29T19:58:14.296Z,101670.63
2022-12-29T20:00:43.258Z,101666.38
2022-12-29T20:03:10.566Z,101671.53
2022-12-29T20:05:38.477Z,101658.63
2022-12-29T20:08:05.491Z,101658.03
2022-12-29T20:10:32.431Z,101656.38
2022-12-29T20:12:59.462Z,101657.16
2022-12-29T20:15:26.497Z,101664.78
2022-12-29T20:20:40.257Z,101661.88
2022-12-29T20:23:07.455Z,101652.44
2022-12-29T20:25:49.639Z,101665.03
2022-12-29T20:28:17.070Z,101654.88
2022-12-29T20:30:44.333Z,101657.56
2022-12-29T20:33:11.486Z,101659.47
2022-12-29T20:35:38.410Z,101668.19
2022-12-29T20:38:05.698Z,101668.50
2022-12-29T20:40:32.603Z,101660.47
2022-12-29T20:42:59.568Z,101654.44
2022-12-29T20:45:26.585Z,101659.69
2022-12-29T20:47:53.619Z,101655.75
2022-12-29T20:50:20.647Z,101660.94
2022-12-29T20:52:47.647Z,101657.19
2022-12-29T20:55:14.621Z,101663.88
2022-12-29T20:58:22.032Z,101662.84
2022-12-29T21:00:32.867Z,101659.03
2022-12-29T21:03:00.274Z,101654.00
2022-12-29T21:05:28.225Z,101652.00
2022-12-29T21:07:55.781Z,101649.66
2022-12-29T21:10:22.790Z,101649.69
2022-12-29T21:12:49.882Z,101650.56
2022-12-29T21:15:16.902Z,101636.75
2022-12-29T21:17:44.503Z,101647.88
2022-12-29T21:20:30.220Z,101649.53
2022-12-29T21:23:01.058Z,101647.88
2022-12-29T21:25:37.257Z,101647.59
2022-12-29T21:28:09.295Z,101645.78
2022-12-29T21:30:36.338Z,101644.22
2022-12-29T21:33:03.537Z,101645.78
2022-12-29T21:35:31.230Z,101647.19
2022-12-29T21:37:58.246Z,101641.31
2022-12-29T21:40:25.150Z,101644.78
2022-12-29T21:42:52.058Z,101641.91
2022-12-29T21:45:25.376Z,101639.78
2022-12-29T21:48:10.440Z,101637.88
2022-12-29T21:51:01.696Z,101632.38
2022-12-29T21:53:38.000Z,101626.09
2022-12-29T21:56:15.254Z,101624.84
2022-12-29T21:59:04.028Z,101630.56
2022-12-29T22:01:51.518Z,101631.22
2022-12-29T22:04:39.511Z,101627.63
2022-12-29T22:07:26.492Z,101633.50
2022-12-29T22:10:11.999Z,101616.50
2022-12-29T22:12:58.055Z,101619.81
2022-12-29T22:15:25.677Z,101628.03
2022-12-29T22:17:54.417Z,101630.28
2022-12-29T22:20:25.698Z,101621.31
2022-12-29T22:22:52.961Z,101629.47
2022-12-29T22:25:20.329Z,101612.31
2022-12-29T22:27:47.685Z,101610.31
2022-12-29T22:30:15.180Z,101615.53
2022-12-29T22:32:42.708Z,101622.44
2022-12-29T22:35:10.881Z,101617.94
2022-12-29T22:37:39.224Z,101612.84
2022-12-29T22:40:08.100Z,101604.41
2022-12-29T22:42:35.057Z,101602.84
2022-12-29T22:45:02.114Z,101597.44
2022-12-29T22:47:28.979Z,101601.22
2022-12-29T22:49:55.836Z,101600.78
2022-12-29T22:52:23.005Z,101602.38
2022-12-29T22:54:49.891Z,101600.50
2022-12-29T22:57:16.733Z,101600.22
2022-12-29T22:59:43.736Z,101602.56
2022-12-29T23:02:10.865Z,101604.34
2022-12-29T23:07:25.373Z,101604.13
2022-12-29T23:09:52.315Z,101596.63
2022-12-29T23:12:19.411Z,101599.47
2022-12-29T23:14:46.302Z,101596.00
2022-12-29T23:17:13.242Z,101597.31
2022-12-29T23:19:40.285Z,101596.38
2022-12-29T23:22:07.166Z,101594.09
2022-12-29T23:24:34.091Z,101591.16
2022-12-29T23:27:01.115Z,101596.84
2022-12-29T23:29:28.060Z,101591.81
2022-12-29T23:31:55.198Z,101581.31
2022-12-29T23:34:22.123Z,101589.22
2022-12-29T23:36:49.026Z,101588.66
2022-12-29T23:39:26.107Z,101581.84
2022-12-29T23:41:53.149Z,101576.28
2022-12-29T23:44:20.192Z,101578.34
2022-12-29T23:46:47.135Z,101575.03
2022-12-29T23:49:14.032Z,101578.34
2022-12-29T23:51:41.223Z,101573.78
2022-12-29T23:54:08.232Z,101580.22
2022-12-29T23:56:35.142Z,101585.09
2022-12-29T23:59:05.963Z,101591.31
